createdAt,value
2019-04-01T00:01:52.457Z,7.10
2019-04-01T00:04:20.966Z,7.20
2019-04-01T00:06:49.401Z,7.10
2019-04-01T00:09:17.824Z,7.20
2019-04-01T00:11:46.335Z,7.10
2019-04-01T00:14:14.820Z,7.00
2019-04-01T00:16:43.331Z,7.10
2019-04-01T00:19:11.750Z,7.00
2019-04-01T00:21:40.236Z,7.00
2019-04-01T00:24:08.727Z,7.00
2019-04-01T00:26:37.168Z,6.90
2019-04-01T00:29:05.600Z,6.80
2019-04-01T00:31:34.014Z,6.90
2019-04-01T00:34:02.471Z,6.80
2019-04-01T00:36:30.879Z,6.80
2019-04-01T00:38:59.335Z,6.70
2019-04-01T00:41:27.766Z,6.60
2019-04-01T00:43:57.859Z,6.60
2019-04-01T00:46:26.571Z,6.60
2019-04-01T00:48:55.133Z,6.60
2019-04-01T00:51:23.732Z,6.60
2019-04-01T00:53:52.199Z,6.50
2019-04-01T00:56:20.623Z,6.50
2019-04-01T00:58:49.084Z,6.50
2019-04-01T01:01:17.495Z,6.40
2019-04-01T01:03:45.932Z,6.40
2019-04-01T01:06:14.370Z,6.40
2019-04-01T01:08:42.829Z,6.40
2019-04-01T01:11:11.250Z,6.40
2019-04-01T01:13:39.712Z,6.30
2019-04-01T01:16:08.138Z,6.30
2019-04-01T01:18:36.607Z,6.30
2019-04-01T01:21:05.140Z,6.20
2019-04-01T01:23:33.547Z,6.20
2019-04-01T01:26:01.997Z,6.20
2019-04-01T01:28:30.410Z,6.10
2019-04-01T01:30:58.876Z,6.10
2019-04-01T01:33:27.298Z,6.10
2019-04-01T01:35:55.747Z,6.10
2019-04-01T01:38:24.171Z,6.10
2019-04-01T01:40:52.624Z,6.00
2019-04-01T01:43:21.043Z,6.00
2019-04-01T01:45:49.491Z,6.00
2019-04-01T01:48:17.903Z,5.90
2019-04-01T01:50:46.357Z,5.90
2019-04-01T01:53:14.783Z,5.80
2019-04-01T01:55:43.227Z,5.80
2019-04-01T01:58:11.665Z,5.80
2019-04-01T02:00:41.582Z,5.70
2019-04-01T02:03:09.995Z,5.70
2019-04-01T02:05:38.455Z,5.70
2019-04-01T02:08:06.951Z,5.60
2019-04-01T02:10:35.399Z,5.60
2019-04-01T02:13:03.824Z,5.60
2019-04-01T02:15:32.270Z,5.60
2019-04-01T02:18:00.701Z,5.60
2019-04-01T02:20:29.160Z,5.50
2019-04-01T02:22:57.586Z,5.50
2019-04-01T02:25:26.007Z,5.50
2019-04-01T02:27:54.459Z,5.40
2019-04-01T02:30:22.918Z,5.40
2019-04-01T02:32:51.344Z,5.40
2019-04-01T02:35:19.782Z,5.40
2019-04-01T02:37:48.285Z,5.40
2019-04-01T02:40:16.785Z,5.30
2019-04-01T02:42:45.295Z,5.30
2019-04-01T02:45:15.260Z,5.30
2019-04-01T02:47:43.731Z,5.30
2019-04-01T02:50:12.400Z,5.20
2019-04-01T02:52:40.931Z,5.20
2019-04-01T02:55:09.776Z,5.10
2019-04-01T02:57:38.303Z,5.10
2019-04-01T03:00:07.229Z,5.00
2019-04-01T03:02:35.668Z,5.00
2019-04-01T03:05:05.436Z,5.00
2019-04-01T03:07:33.879Z,4.90
2019-04-01T03:10:02.315Z,4.90
2019-04-01T03:12:30.758Z,4.90
2019-04-01T03:14:59.197Z,4.80
2019-04-01T03:17:27.636Z,4.80
2019-04-01T03:19:56.097Z,4.80
2019-04-01T03:22:24.588Z,4.70
2019-04-01T03:24:53.050Z,4.70
2019-04-01T03:27:21.489Z,4.70
2019-04-01T03:29:50.008Z,4.60
2019-04-01T03:32:18.458Z,4.60
2019-04-01T03:34:46.958Z,4.60
2019-04-01T03:37:15.389Z,4.60
2019-04-01T03:39:43.851Z,4.60
2019-04-01T03:42:12.270Z,4.60
2019-04-01T03:44:40.729Z,4.60
2019-04-01T03:47:09.156Z,4.60
2019-04-01T03:49:37.616Z,4.50
2019-04-01T03:52:10.010Z,4.50
2019-04-01T03:54:36.217Z,4.40
2019-04-01T03:57:04.714Z,4.40
2019-04-01T03:59:33.176Z,4.40
2019-04-01T04:02:01.693Z,4.30
2019-04-01T04:04:30.147Z,4.30
2019-04-01T04:06:58.564Z,4.30
2019-04-01T04:09:27.024Z,4.20
2019-04-01T04:11:55.447Z,4.20
2019-04-01T04:14:23.898Z,4.10
2019-04-01T04:16:52.391Z,4.10
2019-04-01T04:19:20.849Z,4.00
2019-04-01T04:21:49.282Z,4.00
2019-04-01T04:24:17.726Z,4.00
2019-04-01T04:26:46.327Z,4.00
2019-04-01T04:29:14.751Z,4.00
2019-04-01T04:31:43.259Z,4.00
2019-04-01T04:34:11.751Z,3.90
2019-04-01T04:36:40.194Z,3.90
2019-04-01T04:39:08.623Z,3.90
2019-04-01T04:41:37.076Z,3.90
2019-04-01T04:44:05.571Z,3.80
2019-04-01T04:46:34.014Z,3.80
2019-04-01T04:49:02.442Z,3.80
2019-04-01T04:51:31.244Z,3.80
2019-04-01T04:53:59.811Z,3.80
2019-04-01T04:56:28.283Z,3.70
2019-04-01T04:58:56.771Z,3.70
2019-04-01T05:01:25.221Z,3.70
2019-04-01T05:03:53.670Z,3.60
2019-04-01T05:06:22.112Z,3.70
2019-04-01T05:08:50.635Z,3.70
2019-04-01T05:11:19.138Z,3.60
2019-04-01T05:13:47.562Z,3.60
2019-04-01T05:16:16.008Z,3.60
2019-04-01T05:18:44.427Z,3.60
2019-04-01T05:21:14.579Z,3.70
2019-04-01T05:23:43.739Z,3.60
2019-04-01T05:26:12.349Z,3.70
2019-04-01T05:28:43.198Z,3.70
2019-04-01T05:31:14.771Z,3.70
2019-04-01T05:33:55.206Z,3.70
2019-04-01T05:36:16.564Z,3.80
2019-04-01T05:38:45.351Z,3.80
2019-04-01T05:41:13.843Z,3.80
2019-04-01T05:43:42.361Z,3.80
2019-04-01T05:46:10.924Z,3.80
2019-04-01T05:48:39.434Z,3.90
2019-04-01T05:51:08.079Z,3.90
2019-04-01T05:53:36.683Z,3.90
2019-04-01T05:56:05.400Z,4.00
2019-04-01T05:58:33.911Z,4.00
2019-04-01T06:01:07.173Z,4.00
2019-04-01T06:03:35.751Z,4.10
2019-04-01T06:06:04.439Z,4.10
2019-04-01T06:08:33.319Z,4.20
2019-04-01T06:11:04.569Z,4.30
2019-04-01T06:13:33.111Z,4.30
2019-04-01T06:16:01.905Z,4.30
2019-04-01T06:18:30.419Z,4.40
2019-04-01T06:20:59.791Z,4.40
2019-04-01T06:23:28.565Z,4.50
2019-04-01T06:25:57.173Z,4.50
2019-04-01T06:28:25.687Z,4.60
2019-04-01T06:30:54.375Z,4.70
2019-04-01T06:33:23.003Z,4.70
2019-04-01T06:35:51.451Z,4.70
2019-04-01T06:38:20.024Z,4.80
2019-04-01T06:40:48.943Z,4.90
2019-04-01T06:43:17.379Z,5.00
2019-04-01T06:45:46.016Z,5.10
2019-04-01T06:48:14.682Z,5.20
2019-04-01T06:50:43.208Z,5.20
2019-04-01T06:53:11.656Z,5.30
2019-04-01T06:55:40.197Z,5.40
2019-04-01T06:58:11.806Z,5.40
2019-04-01T07:00:38.939Z,5.60
2019-04-01T07:03:07.372Z,5.70
2019-04-01T07:05:36.459Z,5.80
2019-04-01T07:08:05.228Z,5.90
2019-04-01T07:10:34.357Z,6.00
2019-04-01T07:13:02.996Z,6.00
2019-04-01T07:15:31.536Z,6.20
2019-04-01T07:18:00.262Z,6.20
2019-04-01T07:20:28.782Z,6.40
2019-04-01T07:22:57.378Z,6.60
2019-04-01T07:25:25.816Z,6.70
2019-04-01T07:27:54.311Z,6.90
2019-04-01T07:30:22.835Z,7.00
2019-04-01T07:32:51.269Z,7.20
2019-04-01T07:35:19.795Z,7.30
2019-04-01T07:37:48.341Z,7.40
2019-04-01T07:40:17.054Z,7.60
2019-04-01T07:42:45.579Z,7.70
2019-04-01T07:45:14.147Z,7.80
2019-04-01T07:47:42.848Z,8.00
2019-04-01T07:50:12.419Z,8.10
2019-04-01T07:52:41.395Z,8.30
2019-04-01T07:55:09.979Z,8.30
2019-04-01T07:57:38.495Z,8.30
2019-04-01T08:00:07.851Z,8.40
2019-04-01T08:02:36.573Z,8.50
2019-04-01T08:05:06.363Z,8.50
2019-04-01T08:07:34.964Z,8.50
2019-04-01T08:10:04.939Z,8.40
2019-04-01T08:12:33.592Z,8.60
2019-04-01T08:15:02.114Z,8.70
2019-04-01T08:17:30.726Z,8.80
2019-04-01T08:19:59.289Z,9.10
2019-04-01T08:22:27.874Z,9.20
2019-04-01T08:24:56.300Z,9.30
2019-04-01T08:27:24.919Z,9.20
2019-04-01T08:29:53.408Z,9.30
2019-04-01T08:32:22.017Z,9.40
2019-04-01T08:34:51.119Z,9.50
2019-04-01T08:37:19.653Z,9.70
2019-04-01T08:39:48.146Z,9.90
2019-04-01T08:42:16.706Z,9.90
2019-04-01T08:44:45.335Z,9.80
2019-04-01T08:47:13.964Z,9.90
2019-04-01T08:49:42.567Z,9.90
2019-04-01T08:52:10.995Z,9.90
2019-04-01T08:54:39.596Z,9.90
2019-04-01T08:57:08.020Z,9.90
2019-04-01T08:59:37.209Z,9.90
2019-04-01T09:02:17.231Z,10.00
2019-04-01T09:04:39.798Z,10.20
2019-04-01T09:07:08.227Z,10.50
2019-04-01T09:09:37.928Z,10.70
2019-04-01T09:12:06.365Z,11.00
2019-04-01T09:14:35.771Z,11.10
2019-04-01T09:17:04.330Z,11.30
2019-04-01T09:19:32.811Z,11.40
2019-04-01T09:22:01.352Z,11.50
2019-04-01T09:24:29.804Z,11.60
2019-04-01T09:26:58.250Z,11.70
2019-04-01T09:29:26.708Z,11.70
2019-04-01T09:31:55.253Z,11.70
2019-04-01T09:34:23.721Z,11.80
2019-04-01T09:36:52.227Z,11.90
2019-04-01T09:39:20.695Z,11.90
2019-04-01T09:41:49.168Z,12.00
2019-04-01T09:44:17.742Z,12.10
2019-04-01T09:46:49.032Z,12.20
2019-04-01T09:49:16.447Z,12.20
2019-04-01T09:51:48.819Z,12.30
2019-04-01T09:54:15.216Z,12.20
2019-04-01T09:56:43.683Z,12.20
2019-04-01T09:59:12.207Z,12.20
2019-04-01T10:01:40.745Z,12.10
2019-04-01T10:04:09.320Z,12.20
2019-04-01T10:06:37.823Z,12.30
2019-04-01T10:09:08.003Z,12.50
2019-04-01T10:11:36.468Z,12.50
2019-04-01T10:14:06.475Z,12.60
2019-04-01T10:16:35.051Z,12.70
2019-04-01T10:19:03.555Z,12.60
2019-04-01T10:21:32.019Z,12.60
2019-04-01T10:24:00.542Z,12.80
2019-04-01T10:45:48.041Z,13.10
2019-04-01T10:48:16.587Z,13.00
2019-04-01T10:50:45.134Z,12.80
2019-04-01T10:53:13.657Z,12.90
2019-04-01T10:55:42.324Z,12.90
2019-04-01T10:58:10.875Z,13.00
2019-04-01T11:00:39.925Z,13.20
2019-04-01T11:03:08.436Z,13.20
2019-04-01T11:05:36.903Z,13.20
2019-04-01T11:08:05.682Z,13.30
2019-04-01T11:10:34.119Z,13.40
2019-04-01T11:13:02.649Z,13.30
2019-04-01T11:15:31.075Z,13.50
2019-04-01T11:17:59.532Z,13.60
2019-04-01T11:20:27.965Z,13.60
2019-04-01T11:22:56.417Z,13.60
2019-04-01T11:25:24.878Z,13.70
2019-04-01T11:27:53.396Z,13.70
2019-04-01T11:30:22.107Z,13.70
2019-04-01T11:32:50.571Z,14.00
2019-04-01T11:35:18.998Z,14.10
2019-04-01T11:37:47.562Z,14.20
2019-04-01T11:40:16.284Z,14.00
2019-04-01T11:42:44.848Z,14.00
2019-04-01T11:45:13.746Z,13.90
2019-04-01T11:47:42.378Z,14.00
2019-04-01T11:50:11.523Z,14.20
2019-04-01T11:52:39.997Z,14.30
2019-04-01T11:55:09.540Z,14.60
2019-04-01T11:57:39.783Z,14.70
2019-04-01T12:00:13.266Z,14.70
2019-04-01T12:02:41.991Z,14.70
2019-04-01T12:05:10.584Z,14.70
2019-04-01T12:07:39.100Z,14.60
2019-04-01T12:10:08.564Z,14.60
2019-04-01T12:12:36.992Z,14.60
2019-04-01T12:15:06.750Z,14.80
2019-04-01T12:17:35.179Z,15.00
2019-04-01T12:20:05.080Z,15.20
2019-04-01T12:22:33.579Z,15.30
2019-04-01T12:25:02.035Z,15.40
2019-04-01T12:27:30.474Z,15.40
2019-04-01T12:29:58.986Z,15.30
2019-04-01T12:32:27.498Z,15.40
2019-04-01T12:34:55.942Z,15.50
2019-04-01T12:37:24.484Z,15.30
2019-04-01T12:39:53.042Z,15.20
2019-04-01T12:42:21.468Z,15.40
2019-04-01T12:44:50.046Z,15.40
2019-04-01T12:47:18.587Z,15.40
2019-04-01T12:49:47.024Z,15.50
2019-04-01T12:52:15.525Z,15.20
2019-04-01T12:54:44.703Z,15.00
2019-04-01T12:57:13.499Z,15.10
2019-04-01T12:59:45.732Z,15.20
2019-04-01T13:02:12.303Z,15.30
2019-04-01T13:04:40.795Z,15.50
2019-04-01T13:07:09.261Z,15.40
2019-04-01T13:09:37.758Z,15.50
2019-04-01T13:12:06.558Z,15.60
2019-04-01T13:14:35.078Z,15.60
2019-04-01T13:17:03.592Z,15.70
2019-04-01T13:19:32.062Z,15.80
2019-04-01T13:22:00.587Z,16.00
2019-04-01T13:24:29.106Z,16.10
2019-04-01T13:26:57.610Z,16.10
2019-04-01T13:29:26.082Z,16.20
2019-04-01T13:31:54.551Z,16.30
2019-04-01T13:34:23.001Z,16.30
2019-04-01T13:36:51.463Z,16.30
2019-04-01T13:39:19.943Z,16.20
2019-04-01T13:41:48.456Z,16.30
2019-04-01T13:44:16.884Z,16.30
2019-04-01T13:46:48.365Z,16.20
2019-04-01T13:49:15.588Z,16.30
2019-04-01T13:51:44.027Z,16.40
2019-04-01T13:54:12.470Z,16.40
2019-04-01T13:56:40.895Z,16.40
2019-04-01T13:59:10.024Z,16.50
2019-04-01T14:01:39.653Z,16.60
2019-04-01T14:04:08.163Z,16.60
2019-04-01T14:06:36.603Z,16.70
2019-04-01T14:09:06.962Z,16.60
2019-04-01T14:11:35.398Z,16.40
2019-04-01T14:14:04.063Z,16.40
2019-04-01T14:16:32.510Z,16.30
2019-04-01T14:19:00.979Z,16.30
2019-04-01T14:21:29.578Z,16.40
2019-04-01T14:23:58.025Z,16.50
2019-04-01T14:26:26.455Z,16.40
2019-04-01T14:28:54.961Z,16.30
2019-04-01T14:31:23.494Z,16.40
2019-04-01T14:33:51.953Z,16.40
2019-04-01T14:36:20.561Z,16.50
2019-04-01T14:38:49.048Z,16.50
2019-04-01T14:41:17.507Z,16.50
2019-04-01T14:43:45.962Z,16.70
2019-04-01T14:46:14.418Z,16.80
2019-04-01T14:48:42.936Z,16.80
2019-04-01T14:51:11.418Z,16.80
2019-04-01T14:53:39.892Z,16.90
2019-04-01T14:56:08.376Z,16.90
2019-04-01T14:58:36.864Z,16.80
2019-04-01T15:01:06.427Z,16.80
2019-04-01T15:03:34.940Z,16.70
2019-04-01T15:06:03.540Z,16.70
2019-04-01T15:08:31.973Z,16.80
2019-04-01T15:11:00.429Z,16.80
2019-04-01T15:13:28.869Z,17.00
2019-04-01T15:15:57.320Z,16.90
2019-04-01T15:18:25.747Z,16.90
2019-04-01T15:20:54.303Z,16.80
2019-04-01T15:23:24.960Z,16.70
2019-04-01T15:25:54.542Z,16.70
2019-04-01T15:28:23.274Z,16.70
2019-04-01T15:30:51.823Z,16.70
2019-04-01T15:33:21.078Z,16.70
2019-04-01T15:35:49.901Z,16.60
2019-04-01T15:38:18.435Z,16.60
2019-04-01T15:40:47.222Z,16.60
2019-04-01T15:43:16.097Z,16.60
2019-04-01T15:45:44.585Z,16.70
2019-04-01T15:48:13.236Z,16.80
2019-04-01T15:50:41.795Z,16.80
2019-04-01T15:53:10.250Z,16.70
2019-04-01T15:55:38.675Z,16.70
2019-04-01T15:58:07.312Z,16.70
2019-04-01T16:00:35.843Z,16.70
2019-04-01T16:03:04.375Z,16.70
2019-04-01T16:05:34.181Z,16.70
2019-04-01T16:08:02.810Z,16.70
2019-04-01T16:10:31.343Z,16.80
2019-04-01T16:12:59.847Z,16.80
2019-04-01T16:15:31.752Z,16.80
2019-04-01T16:17:58.528Z,16.70
2019-04-01T16:20:26.966Z,16.80
2019-04-01T16:22:55.498Z,16.70
2019-04-01T16:25:24.042Z,16.70
2019-04-01T16:27:52.547Z,16.70
2019-04-01T16:30:21.031Z,16.70
2019-04-01T16:32:49.542Z,16.60
2019-04-01T16:35:18.144Z,16.60
2019-04-01T16:37:46.615Z,16.50
2019-04-01T16:40:15.349Z,16.60
2019-04-01T16:42:43.787Z,16.60
2019-04-01T16:45:13.549Z,16.60
2019-04-01T16:47:42.682Z,16.50
2019-04-01T16:50:11.738Z,16.50
2019-04-01T16:52:40.247Z,16.50
2019-04-01T16:55:09.670Z,16.50
2019-04-01T16:57:38.170Z,16.50
2019-04-01T17:00:08.571Z,16.30
2019-04-01T17:02:37.023Z,16.30
2019-04-01T17:05:07.524Z,16.20
2019-04-01T17:07:36.023Z,16.20
2019-04-01T17:10:05.236Z,16.20
2019-04-01T17:12:33.663Z,16.10
2019-04-01T17:15:03.666Z,16.10
2019-04-01T17:17:32.317Z,15.90
2019-04-01T17:20:00.762Z,16.00
2019-04-01T17:22:29.303Z,15.90
2019-04-01T17:24:57.959Z,15.80
2019-04-01T17:27:26.423Z,15.70
2019-04-01T17:29:54.951Z,15.50
2019-04-01T17:32:23.464Z,15.40
2019-04-01T17:34:51.903Z,15.40
2019-04-01T17:37:20.374Z,15.40
2019-04-01T17:39:48.795Z,15.20
2019-04-01T17:42:17.486Z,15.10
2019-04-01T17:44:46.054Z,14.90
2019-04-01T17:47:14.592Z,14.70
2019-04-01T17:49:43.099Z,14.60
2019-04-01T17:52:11.597Z,14.50
2019-04-01T17:54:40.191Z,14.40
2019-04-01T17:57:08.689Z,14.30
2019-04-01T17:59:37.322Z,14.20
2019-04-01T18:02:11.398Z,14.10
2019-04-01T18:04:39.831Z,14.00
2019-04-01T18:07:08.396Z,13.80
2019-04-01T18:09:36.895Z,13.60
2019-04-01T18:12:05.355Z,13.50
2019-04-01T18:14:33.785Z,13.40
2019-04-01T18:17:02.250Z,13.30
2019-04-01T18:19:30.956Z,13.20
2019-04-01T18:22:00.262Z,13.10
2019-04-01T18:24:28.904Z,13.00
2019-04-01T18:26:57.406Z,12.90
2019-04-01T18:29:25.897Z,12.80
2019-04-01T18:31:54.354Z,12.80
2019-04-01T18:34:22.837Z,12.70
2019-04-01T18:36:52.184Z,12.60
2019-04-01T18:39:21.216Z,12.50
2019-04-01T18:41:49.688Z,12.50
2019-04-01T18:44:18.701Z,12.40
2019-04-01T18:46:47.503Z,12.30
2019-04-01T18:49:17.071Z,12.20
2019-04-01T18:51:45.772Z,12.20
2019-04-01T18:54:14.310Z,12.10
2019-04-01T18:56:42.766Z,12.10
2019-04-01T18:59:11.298Z,12.00
2019-04-01T19:01:39.745Z,11.90
2019-04-01T19:04:08.360Z,11.90
2019-04-01T19:06:36.805Z,11.90
2019-04-01T19:09:09.365Z,11.80
2019-04-01T19:11:38.352Z,11.70
2019-04-01T19:14:07.031Z,11.70
2019-04-01T19:16:35.702Z,11.60
2019-04-01T19:19:04.337Z,11.60
2019-04-01T19:21:32.867Z,11.60
2019-04-01T19:24:01.393Z,11.50
2019-04-01T19:26:29.846Z,11.50
2019-04-01T19:28:58.439Z,11.40
2019-04-01T19:31:26.954Z,11.50
2019-04-01T19:33:55.470Z,11.40
2019-04-01T19:36:23.913Z,11.40
2019-04-01T19:38:54.231Z,11.40
2019-04-01T19:41:22.531Z,11.40
2019-04-01T19:43:51.354Z,11.50
2019-04-01T19:46:20.153Z,11.50
2019-04-01T19:48:48.624Z,11.50
2019-04-01T19:51:17.245Z,11.40
2019-04-01T19:53:45.720Z,11.40
2019-04-01T19:56:14.196Z,11.40
2019-04-01T19:58:42.638Z,11.30
2019-04-01T20:01:11.195Z,11.20
2019-04-01T20:03:39.616Z,11.20
2019-04-01T20:06:08.107Z,11.10
2019-04-01T20:08:36.555Z,11.10
2019-04-01T20:11:05.262Z,11.10
2019-04-01T20:13:33.740Z,11.00
2019-04-01T20:16:02.222Z,11.00
2019-04-01T20:18:30.867Z,11.00
2019-04-01T20:21:00.149Z,11.00
2019-04-01T20:23:28.617Z,10.90
2019-04-01T20:25:57.257Z,10.90
2019-04-01T20:28:25.862Z,10.80
2019-04-01T20:30:56.456Z,10.80
2019-04-01T20:33:24.650Z,10.90
2019-04-01T20:35:53.138Z,10.90
2019-04-01T20:38:21.611Z,11.00
2019-04-01T20:40:50.102Z,11.00
2019-04-01T20:43:18.616Z,11.10
2019-04-01T20:45:47.080Z,11.10
2019-04-01T20:48:15.622Z,11.00
2019-04-01T20:50:44.056Z,11.00
2019-04-01T20:53:12.496Z,10.90
2019-04-01T20:55:48.224Z,10.70
2019-04-01T20:58:11.296Z,10.70
2019-04-01T21:00:39.806Z,10.70
2019-04-01T21:03:08.291Z,10.70
2019-04-01T21:05:36.715Z,10.70
2019-04-01T21:08:05.178Z,10.70
2019-04-01T21:10:33.779Z,10.60
2019-04-01T21:13:06.248Z,10.60
2019-04-01T21:15:35.152Z,10.60
2019-04-01T21:18:03.776Z,10.70
2019-04-01T21:20:32.549Z,10.80
2019-04-01T21:23:01.243Z,10.70
2019-04-01T21:25:30.237Z,10.70
2019-04-01T21:27:59.045Z,10.70
2019-04-01T21:30:27.492Z,10.80
2019-04-01T21:32:55.912Z,10.70
2019-04-01T21:35:24.594Z,10.70
2019-04-01T21:37:53.151Z,10.60
2019-04-01T21:40:21.694Z,10.60
2019-04-01T21:42:51.343Z,10.60
2019-04-01T21:45:20.411Z,10.50
2019-04-01T21:47:49.046Z,10.50
2019-04-01T21:50:17.706Z,10.50
2019-04-01T21:52:46.286Z,10.50
2019-04-01T21:55:14.969Z,10.50
2019-04-01T21:57:43.412Z,10.40
2019-04-01T22:00:14.251Z,10.30
2019-04-01T22:02:44.086Z,10.30
2019-04-01T22:05:13.363Z,10.20
2019-04-01T22:07:41.932Z,10.20
2019-04-01T22:10:10.766Z,10.10
2019-04-01T22:12:39.184Z,10.00
2019-04-01T22:15:07.782Z,10.00
2019-04-01T22:17:36.239Z,10.00
2019-04-01T22:20:06.615Z,10.00
2019-04-01T22:22:36.158Z,9.90
2019-04-01T22:25:05.883Z,9.90
2019-04-01T22:27:34.320Z,9.80
2019-04-01T22:30:02.848Z,9.80
2019-04-01T22:32:31.306Z,9.80
2019-04-01T22:34:59.742Z,9.80
2019-04-01T22:37:28.211Z,9.70
2019-04-01T22:39:56.674Z,9.80
2019-04-01T22:42:26.247Z,9.70
2019-04-01T22:44:55.340Z,9.70
2019-04-01T22:47:24.501Z,9.70
2019-04-01T22:49:53.210Z,9.60
2019-04-01T22:52:21.650Z,9.70
2019-04-01T22:54:50.072Z,9.70
2019-04-01T22:57:18.531Z,9.60
2019-04-01T22:59:46.964Z,9.60
2019-04-01T23:02:15.415Z,9.60
2019-04-01T23:04:43.912Z,9.60
2019-04-01T23:07:12.383Z,9.50
2019-04-01T23:09:40.870Z,9.50
2019-04-01T23:12:09.343Z,9.40
2019-04-01T23:14:37.783Z,9.40
2019-04-01T23:17:06.232Z,9.40
2019-04-01T23:19:34.970Z,9.40
2019-04-01T23:22:04.242Z,9.40
2019-04-01T23:24:32.653Z,9.30
2019-04-01T23:27:01.114Z,9.30
2019-04-01T23:29:29.885Z,9.30
2019-04-01T23:31:58.329Z,9.30
2019-04-01T23:34:26.776Z,9.30
2019-04-01T23:36:55.241Z,9.30
2019-04-01T23:39:23.686Z,9.30
2019-04-01T23:41:52.240Z,9.30
2019-04-01T23:44:20.664Z,9.20
2019-04-01T23:46:49.115Z,9.20
2019-04-01T23:49:17.626Z,9.20
2019-04-01T23:51:46.047Z,9.10
2019-04-01T23:54:14.512Z,9.10
2019-04-01T23:56:43.035Z,9.10
2019-04-01T23:59:11.507Z,9.10
